sensor_id;sensor_type;location;lat;lon;timestamp;P1;durP1;ratioP1;P2;durP2;ratioP2
12350;SDS011;6240;51.538;7.696;2023-02-15T00:01:26;14.00;;;8.93;;
12350;SDS011;6240;51.538;7.696;2023-02-15T00:03:53;14.80;;;9.83;;
12350;SDS011;6240;51.538;7.696;2023-02-15T00:06:21;12.43;;;9.63;;
12350;SDS011;6240;51.538;7.696;2023-02-15T00:08:48;9.57;;;8.57;;
12350;SDS011;6240;51.538;7.696;2023-02-15T00:11:16;9.50;;;7.63;;
12350;SDS011;6240;51.538;7.696;2023-02-15T00:14:04;12.87;;;8.43;;
12350;SDS011;6240;51.538;7.696;2023-02-15T00:16:33;11.70;;;8.87;;
12350;SDS011;6240;51.538;7.696;2023-02-15T00:19:00;10.87;;;8.43;;
12350;SDS011;6240;51.538;7.696;2023-02-15T00:21:27;13.37;;;9.00;;
12350;SDS011;6240;51.538;7.696;2023-02-15T00:23:55;12.40;;;8.80;;
12350;SDS011;6240;51.538;7.696;2023-02-15T00:26:23;11.37;;;8.63;;
12350;SDS011;6240;51.538;7.696;2023-02-15T00:28:50;12.03;;;8.97;;
12350;SDS011;6240;51.538;7.696;2023-02-15T00:31:17;11.10;;;8.47;;
12350;SDS011;6240;51.538;7.696;2023-02-15T00:33:46;12.23;;;9.17;;
12350;SDS011;6240;51.538;7.696;2023-02-15T00:36:13;13.60;;;8.43;;
12350;SDS011;6240;51.538;7.696;2023-02-15T00:38:40;12.07;;;8.63;;
12350;SDS011;6240;51.538;7.696;2023-02-15T00:41:08;11.47;;;8.50;;
12350;SDS011;6240;51.538;7.696;2023-02-15T00:43:36;11.53;;;8.77;;
12350;SDS011;6240;51.538;7.696;2023-02-15T00:46:03;11.57;;;8.67;;
12350;SDS011;6240;51.538;7.696;2023-02-15T00:48:31;13.23;;;9.57;;
12350;SDS011;6240;51.538;7.696;2023-02-15T00:51:00;12.87;;;8.97;;
12350;SDS011;6240;51.538;7.696;2023-02-15T00:53:28;10.47;;;8.47;;
12350;SDS011;6240;51.538;7.696;2023-02-15T00:55:55;11.57;;;9.33;;
12350;SDS011;6240;51.538;7.696;2023-02-15T00:58:22;13.87;;;9.30;;
12350;SDS011;6240;51.538;7.696;2023-02-15T01:00:49;13.53;;;9.50;;
12350;SDS011;6240;51.538;7.696;2023-02-15T01:03:17;14.17;;;9.50;;
12350;SDS011;6240;51.538;7.696;2023-02-15T01:05:46;14.40;;;9.77;;
12350;SDS011;6240;51.538;7.696;2023-02-15T01:08:15;12.43;;;9.30;;
12350;SDS011;6240;51.538;7.696;2023-02-15T01:10:42;15.27;;;9.77;;
12350;SDS011;6240;51.538;7.696;2023-02-15T01:13:13;16.50;;;9.63;;
12350;SDS011;6240;51.538;7.696;2023-02-15T01:15:41;14.23;;;9.80;;
12350;SDS011;6240;51.538;7.696;2023-02-15T01:18:08;12.37;;;9.00;;
12350;SDS011;6240;51.538;7.696;2023-02-15T01:20:36;12.97;;;10.13;;
12350;SDS011;6240;51.538;7.696;2023-02-15T01:23:06;12.37;;;9.23;;
12350;SDS011;6240;51.538;7.696;2023-02-15T01:25:35;13.87;;;9.40;;
12350;SDS011;6240;51.538;7.696;2023-02-15T01:28:02;13.07;;;9.57;;
12350;SDS011;6240;51.538;7.696;2023-02-15T01:30:30;12.40;;;9.30;;
12350;SDS011;6240;51.538;7.696;2023-02-15T01:32:57;13.10;;;8.93;;
12350;SDS011;6240;51.538;7.696;2023-02-15T01:35:25;15.90;;;9.47;;
12350;SDS011;6240;51.538;7.696;2023-02-15T01:37:53;13.97;;;9.80;;
12350;SDS011;6240;51.538;7.696;2023-02-15T01:40:20;15.33;;;9.67;;
12350;SDS011;6240;51.538;7.696;2023-02-15T01:42:51;13.40;;;10.03;;
12350;SDS011;6240;51.538;7.696;2023-02-15T01:45:20;13.77;;;9.50;;
12350;SDS011;6240;51.538;7.696;2023-02-15T01:47:49;13.90;;;9.53;;
12350;SDS011;6240;51.538;7.696;2023-02-15T01:50:18;14.07;;;9.57;;
12350;SDS011;6240;51.538;7.696;2023-02-15T01:52:48;13.17;;;9.60;;
12350;SDS011;6240;51.538;7.696;2023-02-15T01:55:18;14.37;;;10.30;;
12350;SDS011;6240;51.538;7.696;2023-02-15T01:57:45;13.70;;;9.83;;
12350;SDS011;6240;51.538;7.696;2023-02-15T02:00:14;12.87;;;9.60;;
12350;SDS011;6240;51.538;7.696;2023-02-15T02:02:43;17.00;;;10.23;;
12350;SDS011;6240;51.538;7.696;2023-02-15T02:05:11;15.97;;;10.77;;
12350;SDS011;6240;51.538;7.696;2023-02-15T02:07:39;16.83;;;10.97;;
12350;SDS011;6240;51.538;7.696;2023-02-15T02:10:08;14.73;;;10.07;;
12350;SDS011;6240;51.538;7.696;2023-02-15T02:12:35;12.90;;;9.97;;
12350;SDS011;6240;51.538;7.696;2023-02-15T02:15:04;15.17;;;10.83;;
12350;SDS011;6240;51.538;7.696;2023-02-15T02:17:34;13.57;;;10.13;;
12350;SDS011;6240;51.538;7.696;2023-02-15T02:20:12;15.70;;;10.77;;
12350;SDS011;6240;51.538;7.696;2023-02-15T02:22:47;16.17;;;10.97;;
12350;SDS011;6240;51.538;7.696;2023-02-15T02:27:59;15.80;;;11.23;;
12350;SDS011;6240;51.538;7.696;2023-02-15T02:30:37;15.83;;;10.67;;
12350;SDS011;6240;51.538;7.696;2023-02-15T02:33:21;16.70;;;10.27;;
12350;SDS011;6240;51.538;7.696;2023-02-15T02:35:54;14.50;;;10.43;;
12350;SDS011;6240;51.538;7.696;2023-02-15T02:38:25;16.60;;;11.30;;
12350;SDS011;6240;51.538;7.696;2023-02-15T02:40:55;16.77;;;11.63;;
12350;SDS011;6240;51.538;7.696;2023-02-15T02:43:25;16.27;;;11.57;;
12350;SDS011;6240;51.538;7.696;2023-02-15T02:45:56;17.40;;;12.00;;
12350;SDS011;6240;51.538;7.696;2023-02-15T02:48:26;18.60;;;11.63;;
12350;SDS011;6240;51.538;7.696;2023-02-15T02:50:54;19.87;;;12.77;;
12350;SDS011;6240;51.538;7.696;2023-02-15T02:53:21;16.83;;;11.43;;
12350;SDS011;6240;51.538;7.696;2023-02-15T02:55:51;19.73;;;13.37;;
12350;SDS011;6240;51.538;7.696;2023-02-15T02:58:20;20.47;;;12.77;;
12350;SDS011;6240;51.538;7.696;2023-02-15T03:00:49;18.67;;;11.93;;
12350;SDS011;6240;51.538;7.696;2023-02-15T03:03:19;18.50;;;11.47;;
12350;SDS011;6240;51.538;7.696;2023-02-15T03:05:50;16.93;;;11.90;;
12350;SDS011;6240;51.538;7.696;2023-02-15T03:08:19;16.77;;;11.97;;
12350;SDS011;6240;51.538;7.696;2023-02-15T03:10:48;17.93;;;12.67;;
12350;SDS011;6240;51.538;7.696;2023-02-15T03:13:16;17.37;;;11.97;;
12350;SDS011;6240;51.538;7.696;2023-02-15T03:15:44;18.97;;;12.57;;
12350;SDS011;6240;51.538;7.696;2023-02-15T03:18:30;17.50;;;12.07;;
12350;SDS011;6240;51.538;7.696;2023-02-15T03:21:01;16.57;;;11.93;;
12350;SDS011;6240;51.538;7.696;2023-02-15T03:23:30;18.30;;;12.53;;
12350;SDS011;6240;51.538;7.696;2023-02-15T03:25:58;16.43;;;12.37;;
12350;SDS011;6240;51.538;7.696;2023-02-15T03:28:27;18.07;;;12.13;;
12350;SDS011;6240;51.538;7.696;2023-02-15T03:30:57;18.03;;;11.60;;
12350;SDS011;6240;51.538;7.696;2023-02-15T03:33:26;16.90;;;11.63;;
12350;SDS011;6240;51.538;7.696;2023-02-15T03:35:54;15.73;;;11.60;;
12350;SDS011;6240;51.538;7.696;2023-02-15T03:38:25;19.93;;;11.97;;
12350;SDS011;6240;51.538;7.696;2023-02-15T03:40:53;19.70;;;12.67;;
12350;SDS011;6240;51.538;7.696;2023-02-15T03:43:37;19.17;;;12.30;;
12350;SDS011;6240;51.538;7.696;2023-02-15T03:46:06;18.03;;;13.00;;
12350;SDS011;6240;51.538;7.696;2023-02-15T03:48:36;17.10;;;11.50;;
12350;SDS011;6240;51.538;7.696;2023-02-15T03:51:05;18.43;;;12.00;;
12350;SDS011;6240;51.538;7.696;2023-02-15T03:53:53;18.90;;;12.23;;
12350;SDS011;6240;51.538;7.696;2023-02-15T03:56:21;18.07;;;12.43;;
12350;SDS011;6240;51.538;7.696;2023-02-15T03:58:48;17.00;;;12.50;;
12350;SDS011;6240;51.538;7.696;2023-02-15T04:01:33;16.40;;;12.17;;
12350;SDS011;6240;51.538;7.696;2023-02-15T04:04:19;18.53;;;12.37;;
12350;SDS011;6240;51.538;7.696;2023-02-15T04:06:47;18.13;;;12.83;;
12350;SDS011;6240;51.538;7.696;2023-02-15T04:09:15;19.43;;;12.70;;
12350;SDS011;6240;51.538;7.696;2023-02-15T04:12:00;17.10;;;11.60;;
12350;SDS011;6240;51.538;7.696;2023-02-15T04:14:27;19.83;;;13.00;;
12350;SDS011;6240;51.538;7.696;2023-02-15T04:17:13;19.73;;;13.03;;
12350;SDS011;6240;51.538;7.696;2023-02-15T04:19:43;20.03;;;14.20;;
12350;SDS011;6240;51.538;7.696;2023-02-15T04:22:31;19.47;;;13.07;;
12350;SDS011;6240;51.538;7.696;2023-02-15T04:25:19;17.77;;;12.03;;
12350;SDS011;6240;51.538;7.696;2023-02-15T04:27:48;17.37;;;11.50;;
12350;SDS011;6240;51.538;7.696;2023-02-15T04:30:17;19.50;;;12.90;;
12350;SDS011;6240;51.538;7.696;2023-02-15T04:32:44;19.93;;;13.00;;
12350;SDS011;6240;51.538;7.696;2023-02-15T04:35:12;20.40;;;13.07;;
12350;SDS011;6240;51.538;7.696;2023-02-15T04:37:39;16.90;;;11.63;;
12350;SDS011;6240;51.538;7.696;2023-02-15T04:40:07;20.43;;;13.47;;
12350;SDS011;6240;51.538;7.696;2023-02-15T04:42:36;17.10;;;12.43;;
12350;SDS011;6240;51.538;7.696;2023-02-15T04:45:03;17.60;;;12.70;;
12350;SDS011;6240;51.538;7.696;2023-02-15T04:47:30;18.67;;;11.93;;
12350;SDS011;6240;51.538;7.696;2023-02-15T04:49:58;19.13;;;12.50;;
12350;SDS011;6240;51.538;7.696;2023-02-15T04:52:25;18.83;;;12.83;;
12350;SDS011;6240;51.538;7.696;2023-02-15T04:54:52;18.90;;;13.27;;
12350;SDS011;6240;51.538;7.696;2023-02-15T04:57:19;18.33;;;13.10;;
12350;SDS011;6240;51.538;7.696;2023-02-15T04:59:48;22.90;;;13.90;;
12350;SDS011;6240;51.538;7.696;2023-02-15T05:02:15;17.97;;;13.00;;
12350;SDS011;6240;51.538;7.696;2023-02-15T05:04:42;19.27;;;13.73;;
12350;SDS011;6240;51.538;7.696;2023-02-15T05:07:11;19.30;;;13.10;;
12350;SDS011;6240;51.538;7.696;2023-02-15T05:09:40;20.13;;;13.03;;
12350;SDS011;6240;51.538;7.696;2023-02-15T05:12:07;15.93;;;12.47;;
12350;SDS011;6240;51.538;7.696;2023-02-15T05:14:34;20.03;;;12.80;;
12350;SDS011;6240;51.538;7.696;2023-02-15T05:17:03;18.33;;;12.87;;
12350;SDS011;6240;51.538;7.696;2023-02-15T05:19:30;18.23;;;13.20;;
12350;SDS011;6240;51.538;7.696;2023-02-15T05:21:58;16.83;;;12.23;;
12350;SDS011;6240;51.538;7.696;2023-02-15T05:24:25;18.70;;;12.90;;
12350;SDS011;6240;51.538;7.696;2023-02-15T05:27:10;18.63;;;12.90;;
12350;SDS011;6240;51.538;7.696;2023-02-15T05:29:55;17.97;;;12.67;;
12350;SDS011;6240;51.538;7.696;2023-02-15T05:32:23;18.13;;;12.80;;
12350;SDS011;6240;51.538;7.696;2023-02-15T05:34:51;16.17;;;12.50;;
12350;SDS011;6240;51.538;7.696;2023-02-15T05:37:18;19.67;;;12.87;;
12350;SDS011;6240;51.538;7.696;2023-02-15T05:39:45;17.67;;;13.03;;
12350;SDS011;6240;51.538;7.696;2023-02-15T05:42:12;19.53;;;13.07;;
12350;SDS011;6240;51.538;7.696;2023-02-15T05:44:39;21.07;;;13.33;;
12350;SDS011;6240;51.538;7.696;2023-02-15T05:47:06;19.07;;;12.60;;
12350;SDS011;6240;51.538;7.696;2023-02-15T05:49:35;19.13;;;13.23;;
12350;SDS011;6240;51.538;7.696;2023-02-15T05:52:02;17.93;;;13.10;;
12350;SDS011;6240;51.538;7.696;2023-02-15T05:54:30;18.83;;;13.23;;
12350;SDS011;6240;51.538;7.696;2023-02-15T05:56:57;18.00;;;13.20;;
12350;SDS011;6240;51.538;7.696;2023-02-15T05:59:24;19.33;;;13.97;;
12350;SDS011;6240;51.538;7.696;2023-02-15T06:01:51;20.83;;;14.43;;
12350;SDS011;6240;51.538;7.696;2023-02-15T06:04:18;19.37;;;13.33;;
12350;SDS011;6240;51.538;7.696;2023-02-15T06:06:47;19.33;;;13.53;;
12350;SDS011;6240;51.538;7.696;2023-02-15T06:09:14;18.47;;;13.63;;
12350;SDS011;6240;51.538;7.696;2023-02-15T06:11:43;20.33;;;14.57;;
12350;SDS011;6240;51.538;7.696;2023-02-15T06:14:10;18.83;;;14.23;;
12350;SDS011;6240;51.538;7.696;2023-02-15T06:16:38;22.53;;;15.37;;
12350;SDS011;6240;51.538;7.696;2023-02-15T06:19:15;20.13;;;14.67;;
12350;SDS011;6240;51.538;7.696;2023-02-15T06:21:45;23.27;;;14.33;;
12350;SDS011;6240;51.538;7.696;2023-02-15T06:24:13;21.43;;;14.73;;
12350;SDS011;6240;51.538;7.696;2023-02-15T06:26:41;22.93;;;14.73;;
12350;SDS011;6240;51.538;7.696;2023-02-15T06:29:11;21.17;;;14.80;;
12350;SDS011;6240;51.538;7.696;2023-02-15T06:31:40;22.73;;;15.23;;
12350;SDS011;6240;51.538;7.696;2023-02-15T06:34:10;20.37;;;14.13;;
12350;SDS011;6240;51.538;7.696;2023-02-15T06:36:39;23.30;;;14.57;;
12350;SDS011;6240;51.538;7.696;2023-02-15T06:39:07;22.07;;;14.50;;
12350;SDS011;6240;51.538;7.696;2023-02-15T06:41:36;18.13;;;13.97;;
12350;SDS011;6240;51.538;7.696;2023-02-15T06:44:03;23.07;;;14.43;;
12350;SDS011;6240;51.538;7.696;2023-02-15T06:46:30;20.90;;;14.23;;
12350;SDS011;6240;51.538;7.696;2023-02-15T06:48:58;20.40;;;14.67;;
12350;SDS011;6240;51.538;7.696;2023-02-15T06:51:25;20.10;;;14.37;;
12350;SDS011;6240;51.538;7.696;2023-02-15T06:53:53;22.03;;;15.10;;
12350;SDS011;6240;51.538;7.696;2023-02-15T06:56:23;21.90;;;15.10;;
12350;SDS011;6240;51.538;7.696;2023-02-15T06:58:55;22.87;;;16.20;;
12350;SDS011;6240;51.538;7.696;2023-02-15T07:01:24;22.67;;;14.70;;
12350;SDS011;6240;51.538;7.696;2023-02-15T07:03:51;21.53;;;15.47;;
12350;SDS011;6240;51.538;7.696;2023-02-15T07:06:18;19.90;;;14.43;;
12350;SDS011;6240;51.538;7.696;2023-02-15T07:08:46;22.70;;;15.77;;
12350;SDS011;6240;51.538;7.696;2023-02-15T07:11:16;19.90;;;14.53;;
12350;SDS011;6240;51.538;7.696;2023-02-15T07:14:06;21.73;;;14.90;;
12350;SDS011;6240;51.538;7.696;2023-02-15T07:16:33;23.90;;;15.13;;
12350;SDS011;6240;51.538;7.696;2023-02-15T07:19:00;19.97;;;14.27;;
12350;SDS011;6240;51.538;7.696;2023-02-15T07:21:27;20.93;;;15.53;;
12350;SDS011;6240;51.538;7.696;2023-02-15T07:23:55;23.17;;;15.63;;
12350;SDS011;6240;51.538;7.696;2023-02-15T07:26:23;24.27;;;15.23;;
12350;SDS011;6240;51.538;7.696;2023-02-15T07:28:50;21.90;;;15.67;;
12350;SDS011;6240;51.538;7.696;2023-02-15T07:31:19;28.73;;;15.83;;
12350;SDS011;6240;51.538;7.696;2023-02-15T07:33:49;22.67;;;15.23;;
12350;SDS011;6240;51.538;7.696;2023-02-15T07:36:18;24.87;;;16.07;;
12350;SDS011;6240;51.538;7.696;2023-02-15T07:38:46;24.67;;;16.07;;
12350;SDS011;6240;51.538;7.696;2023-02-15T07:41:14;24.87;;;14.70;;
12350;SDS011;6240;51.538;7.696;2023-02-15T07:43:42;27.13;;;16.73;;
12350;SDS011;6240;51.538;7.696;2023-02-15T07:46:10;23.70;;;15.17;;
12350;SDS011;6240;51.538;7.696;2023-02-15T07:48:40;23.50;;;15.13;;
12350;SDS011;6240;51.538;7.696;2023-02-15T07:51:08;22.50;;;15.27;;
12350;SDS011;6240;51.538;7.696;2023-02-15T07:53:36;25.03;;;14.50;;
12350;SDS011;6240;51.538;7.696;2023-02-15T07:56:04;23.60;;;15.37;;
12350;SDS011;6240;51.538;7.696;2023-02-15T07:58:31;23.43;;;15.20;;
12350;SDS011;6240;51.538;7.696;2023-02-15T08:01:17;23.03;;;14.50;;
12350;SDS011;6240;51.538;7.696;2023-02-15T08:03:48;21.47;;;14.13;;
12350;SDS011;6240;51.538;7.696;2023-02-15T08:06:16;23.70;;;15.67;;
12350;SDS011;6240;51.538;7.696;2023-02-15T08:08:44;20.53;;;14.93;;
12350;SDS011;6240;51.538;7.696;2023-02-15T08:11:15;22.70;;;14.47;;
12350;SDS011;6240;51.538;7.696;2023-02-15T08:13:54;21.90;;;13.73;;
12350;SDS011;6240;51.538;7.696;2023-02-15T08:16:24;21.17;;;14.37;;
12350;SDS011;6240;51.538;7.696;2023-02-15T08:18:53;19.90;;;13.30;;
12350;SDS011;6240;51.538;7.696;2023-02-15T08:21:21;19.63;;;12.90;;
12350;SDS011;6240;51.538;7.696;2023-02-15T08:23:54;19.97;;;14.20;;
12350;SDS011;6240;51.538;7.696;2023-02-15T08:26:23;20.37;;;12.97;;
12350;SDS011;6240;51.538;7.696;2023-02-15T08:28:51;18.20;;;12.67;;
12350;SDS011;6240;51.538;7.696;2023-02-15T08:31:19;22.03;;;14.30;;
12350;SDS011;6240;51.538;7.696;2023-02-15T08:33:48;19.70;;;13.90;;
12350;SDS011;6240;51.538;7.696;2023-02-15T08:36:18;21.27;;;14.50;;
12350;SDS011;6240;51.538;7.696;2023-02-15T08:38:45;21.80;;;14.90;;
12350;SDS011;6240;51.538;7.696;2023-02-15T08:41:15;19.10;;;13.97;;
12350;SDS011;6240;51.538;7.696;2023-02-15T08:43:46;19.00;;;13.53;;
12350;SDS011;6240;51.538;7.696;2023-02-15T08:46:16;17.03;;;12.93;;
12350;SDS011;6240;51.538;7.696;2023-02-15T08:48:44;19.60;;;13.80;;
12350;SDS011;6240;51.538;7.696;2023-02-15T08:51:13;18.20;;;12.83;;
12350;SDS011;6240;51.538;7.696;2023-02-15T08:53:46;20.40;;;14.50;;
12350;SDS011;6240;51.538;7.696;2023-02-15T08:56:15;19.43;;;13.83;;
12350;SDS011;6240;51.538;7.696;2023-02-15T08:58:43;19.57;;;13.23;;
12350;SDS011;6240;51.538;7.696;2023-02-15T09:01:10;21.67;;;13.93;;
12350;SDS011;6240;51.538;7.696;2023-02-15T09:03:38;21.90;;;14.10;;
12350;SDS011;6240;51.538;7.696;2023-02-15T09:06:05;20.50;;;14.40;;
12350;SDS011;6240;51.538;7.696;2023-02-15T09:08:33;22.53;;;13.20;;
12350;SDS011;6240;51.538;7.696;2023-02-15T09:11:09;19.23;;;13.37;;
12350;SDS011;6240;51.538;7.696;2023-02-15T09:13:38;21.87;;;14.20;;
12350;SDS011;6240;51.538;7.696;2023-02-15T09:16:06;18.77;;;13.13;;
12350;SDS011;6240;51.538;7.696;2023-02-15T09:18:34;21.33;;;14.30;;
12350;SDS011;6240;51.538;7.696;2023-02-15T09:21:06;21.60;;;13.57;;
12350;SDS011;6240;51.538;7.696;2023-02-15T09:23:33;19.17;;;12.83;;
12350;SDS011;6240;51.538;7.696;2023-02-15T09:26:02;16.57;;;12.33;;
12350;SDS011;6240;51.538;7.696;2023-02-15T09:28:31;17.80;;;12.83;;
12350;SDS011;6240;51.538;7.696;2023-02-15T09:31:09;20.93;;;13.57;;
12350;SDS011;6240;51.538;7.696;2023-02-15T09:33:40;22.13;;;13.37;;
12350;SDS011;6240;51.538;7.696;2023-02-15T09:36:14;18.40;;;12.57;;
12350;SDS011;6240;51.538;7.696;2023-02-15T09:38:41;21.57;;;12.87;;
12350;SDS011;6240;51.538;7.696;2023-02-15T09:41:16;21.07;;;13.93;;
12350;SDS011;6240;51.538;7.696;2023-02-15T09:43:50;17.43;;;12.80;;
12350;SDS011;6240;51.538;7.696;2023-02-15T09:46:26;21.97;;;12.37;;
12350;SDS011;6240;51.538;7.696;2023-02-15T09:48:55;21.07;;;12.87;;
12350;SDS011;6240;51.538;7.696;2023-02-15T09:51:34;17.40;;;12.23;;
12350;SDS011;6240;51.538;7.696;2023-02-15T09:54:08;17.73;;;12.47;;
12350;SDS011;6240;51.538;7.696;2023-02-15T09:56:42;19.20;;;13.27;;
12350;SDS011;6240;51.538;7.696;2023-02-15T09:59:15;16.90;;;11.70;;
12350;SDS011;6240;51.538;7.696;2023-02-15T10:01:45;17.77;;;11.97;;
12350;SDS011;6240;51.538;7.696;2023-02-15T10:04:22;19.23;;;12.43;;
12350;SDS011;6240;51.538;7.696;2023-02-15T10:06:59;19.17;;;11.90;;
12350;SDS011;6240;51.538;7.696;2023-02-15T10:09:44;18.23;;;12.43;;
12350;SDS011;6240;51.538;7.696;2023-02-15T10:15:09;16.97;;;11.43;;
12350;SDS011;6240;51.538;7.696;2023-02-15T10:17:42;16.17;;;11.60;;
12350;SDS011;6240;51.538;7.696;2023-02-15T10:20:17;16.93;;;10.80;;
12350;SDS011;6240;51.538;7.696;2023-02-15T10:22:53;17.93;;;11.63;;
12350;SDS011;6240;51.538;7.696;2023-02-15T10:25:28;19.27;;;11.40;;
12350;SDS011;6240;51.538;7.696;2023-02-15T10:27:58;18.40;;;11.73;;
12350;SDS011;6240;51.538;7.696;2023-02-15T10:30:33;15.27;;;10.63;;
12350;SDS011;6240;51.538;7.696;2023-02-15T10:33:03;17.80;;;10.90;;
12350;SDS011;6240;51.538;7.696;2023-02-15T10:35:33;16.90;;;10.83;;
12350;SDS011;6240;51.538;7.696;2023-02-15T10:38:07;19.87;;;10.87;;
12350;SDS011;6240;51.538;7.696;2023-02-15T10:40:39;16.27;;;10.53;;
12350;SDS011;6240;51.538;7.696;2023-02-15T10:43:20;16.13;;;10.57;;
12350;SDS011;6240;51.538;7.696;2023-02-15T10:45:56;16.57;;;11.33;;
12350;SDS011;6240;51.538;7.696;2023-02-15T10:48:29;14.33;;;10.93;;
12350;SDS011;6240;51.538;7.696;2023-02-15T10:51:03;15.27;;;10.67;;
12350;SDS011;6240;51.538;7.696;2023-02-15T10:53:36;18.90;;;11.40;;
12350;SDS011;6240;51.538;7.696;2023-02-15T10:56:08;14.90;;;10.37;;
12350;SDS011;6240;51.538;7.696;2023-02-15T10:58:45;18.00;;;11.00;;
12350;SDS011;6240;51.538;7.696;2023-02-15T11:01:18;15.50;;;11.00;;
12350;SDS011;6240;51.538;7.696;2023-02-15T11:04:05;16.50;;;10.80;;
12350;SDS011;6240;51.538;7.696;2023-02-15T11:06:39;14.17;;;10.50;;
12350;SDS011;6240;51.538;7.696;2023-02-15T11:09:13;17.13;;;10.37;;
12350;SDS011;6240;51.538;7.696;2023-02-15T11:11:44;16.33;;;10.40;;
12350;SDS011;6240;51.538;7.696;2023-02-15T11:14:13;17.77;;;9.73;;
12350;SDS011;6240;51.538;7.696;2023-02-15T11:16:43;13.13;;;9.90;;
12350;SDS011;6240;51.538;7.696;2023-02-15T11:19:12;14.53;;;10.00;;
12350;SDS011;6240;51.538;7.696;2023-02-15T11:21:42;15.73;;;10.13;;
12350;SDS011;6240;51.538;7.696;2023-02-15T11:24:10;13.27;;;9.70;;
12350;SDS011;6240;51.538;7.696;2023-02-15T11:26:41;13.80;;;9.83;;
12350;SDS011;6240;51.538;7.696;2023-02-15T11:29:10;14.70;;;10.47;;
12350;SDS011;6240;51.538;7.696;2023-02-15T11:31:43;14.03;;;9.43;;
12350;SDS011;6240;51.538;7.696;2023-02-15T11:34:12;13.57;;;9.17;;
12350;SDS011;6240;51.538;7.696;2023-02-15T11:36:49;12.90;;;8.87;;
12350;SDS011;6240;51.538;7.696;2023-02-15T11:39:17;16.57;;;9.00;;
12350;SDS011;6240;51.538;7.696;2023-02-15T11:41:46;14.33;;;8.80;;
12350;SDS011;6240;51.538;7.696;2023-02-15T11:44:19;15.93;;;9.73;;
12350;SDS011;6240;51.538;7.696;2023-02-15T11:46:49;13.67;;;9.43;;
12350;SDS011;6240;51.538;7.696;2023-02-15T11:49:20;13.43;;;8.60;;
12350;SDS011;6240;51.538;7.696;2023-02-15T11:51:50;11.40;;;8.40;;
12350;SDS011;6240;51.538;7.696;2023-02-15T11:54:21;13.43;;;9.13;;
12350;SDS011;6240;51.538;7.696;2023-02-15T11:56:52;14.30;;;9.23;;
12350;SDS011;6240;51.538;7.696;2023-02-15T11:59:21;13.03;;;8.90;;
12350;SDS011;6240;51.538;7.696;2023-02-15T12:01:55;12.87;;;9.37;;
12350;SDS011;6240;51.538;7.696;2023-02-15T12:04:23;15.33;;;9.93;;
12350;SDS011;6240;51.538;7.696;2023-02-15T12:06:53;14.97;;;9.20;;
12350;SDS011;6240;51.538;7.696;2023-02-15T12:09:24;13.17;;;8.53;;
12350;SDS011;6240;51.538;7.696;2023-02-15T12:11:54;13.47;;;8.40;;
12350;SDS011;6240;51.538;7.696;2023-02-15T12:14:46;12.67;;;8.33;;
12350;SDS011;6240;51.538;7.696;2023-02-15T12:17:14;15.00;;;8.23;;
12350;SDS011;6240;51.538;7.696;2023-02-15T12:19:42;15.33;;;8.77;;
12350;SDS011;6240;51.538;7.696;2023-02-15T12:22:17;11.90;;;8.53;;
12350;SDS011;6240;51.538;7.696;2023-02-15T12:24:48;12.97;;;8.20;;
12350;SDS011;6240;51.538;7.696;2023-02-15T12:27:21;11.47;;;7.80;;
12350;SDS011;6240;51.538;7.696;2023-02-15T12:29:57;11.77;;;8.23;;
12350;SDS011;6240;51.538;7.696;2023-02-15T12:32:27;13.27;;;8.40;;
12350;SDS011;6240;51.538;7.696;2023-02-15T12:34:59;13.10;;;8.10;;
12350;SDS011;6240;51.538;7.696;2023-02-15T12:37:29;9.17;;;6.43;;
12350;SDS011;6240;51.538;7.696;2023-02-15T12:40:00;8.47;;;5.93;;
12350;SDS011;6240;51.538;7.696;2023-02-15T12:42:40;8.93;;;6.10;;
12350;SDS011;6240;51.538;7.696;2023-02-15T16:05:14;13.27;;;7.93;;
12350;SDS011;6240;51.538;7.696;2023-02-15T16:07:41;15.80;;;12.77;;
12350;SDS011;6240;51.538;7.696;2023-02-15T16:10:19;17.17;;;12.13;;
12350;SDS011;6240;51.538;7.696;2023-02-15T16:12:47;21.07;;;18.77;;
12350;SDS011;6240;51.538;7.696;2023-02-15T16:15:15;32.50;;;27.00;;
12350;SDS011;6240;51.538;7.696;2023-02-15T16:17:43;12.73;;;8.53;;
12350;SDS011;6240;51.538;7.696;2023-02-15T16:20:15;21.80;;;11.43;;
12350;SDS011;6240;51.538;7.696;2023-02-15T16:22:43;58.97;;;41.03;;
12350;SDS011;6240;51.538;7.696;2023-02-15T16:25:21;61.23;;;40.90;;
12350;SDS011;6240;51.538;7.696;2023-02-15T16:27:54;11.67;;;7.60;;
12350;SDS011;6240;51.538;7.696;2023-02-15T16:30:25;15.43;;;7.47;;
12350;SDS011;6240;51.538;7.696;2023-02-15T16:32:55;13.50;;;8.83;;
12350;SDS011;6240;51.538;7.696;2023-02-15T16:35:31;13.93;;;8.17;;
12350;SDS011;6240;51.538;7.696;2023-02-15T16:37:58;15.37;;;8.90;;
12350;SDS011;6240;51.538;7.696;2023-02-15T16:40:32;18.67;;;8.83;;
12350;SDS011;6240;51.538;7.696;2023-02-15T16:43:03;14.77;;;9.03;;
12350;SDS011;6240;51.538;7.696;2023-02-15T16:45:33;14.57;;;7.33;;
12350;SDS011;6240;51.538;7.696;2023-02-15T16:48:05;15.50;;;8.60;;
12350;SDS011;6240;51.538;7.696;2023-02-15T16:50:38;20.27;;;7.80;;
12350;SDS011;6240;51.538;7.696;2023-02-15T16:53:13;18.37;;;8.30;;
12350;SDS011;6240;51.538;7.696;2023-02-15T16:55:45;19.57;;;8.93;;
12350;SDS011;6240;51.538;7.696;2023-02-15T16:58:18;18.67;;;9.20;;
12350;SDS011;6240;51.538;7.696;2023-02-15T17:00:47;18.70;;;8.97;;
12350;SDS011;6240;51.538;7.696;2023-02-15T17:03:24;18.70;;;10.67;;
12350;SDS011;6240;51.538;7.696;2023-02-15T17:05:56;16.07;;;9.50;;
12350;SDS011;6240;51.538;7.696;2023-02-15T17:08:27;20.17;;;9.53;;
12350;SDS011;6240;51.538;7.696;2023-02-15T17:11:03;21.17;;;9.23;;
12350;SDS011;6240;51.538;7.696;2023-02-15T17:13:31;14.53;;;8.83;;
12350;SDS011;6240;51.538;7.696;2023-02-15T17:18:44;17.93;;;10.30;;
12350;SDS011;6240;51.538;7.696;2023-02-15T17:21:16;15.10;;;8.83;;
12350;SDS011;6240;51.538;7.696;2023-02-15T17:23:44;14.67;;;9.63;;
12350;SDS011;6240;51.538;7.696;2023-02-15T17:26:25;16.73;;;9.43;;
12350;SDS011;6240;51.538;7.696;2023-02-15T17:28:54;15.73;;;8.40;;
12350;SDS011;6240;51.538;7.696;2023-02-15T17:31:22;16.50;;;9.53;;
12350;SDS011;6240;51.538;7.696;2023-02-15T17:33:51;14.57;;;9.00;;
12350;SDS011;6240;51.538;7.696;2023-02-15T17:36:22;13.93;;;9.73;;
12350;SDS011;6240;51.538;7.696;2023-02-15T17:38:59;15.43;;;9.87;;
12350;SDS011;6240;51.538;7.696;2023-02-15T17:41:27;13.67;;;8.50;;
12350;SDS011;6240;51.538;7.696;2023-02-15T17:43:55;12.93;;;9.00;;
12350;SDS011;6240;51.538;7.696;2023-02-15T17:46:22;17.97;;;9.10;;
12350;SDS011;6240;51.538;7.696;2023-02-15T17:48:51;13.83;;;8.30;;
12350;SDS011;6240;51.538;7.696;2023-02-15T17:51:24;14.43;;;8.03;;
12350;SDS011;6240;51.538;7.696;2023-02-15T17:53:54;13.23;;;8.67;;
12350;SDS011;6240;51.538;7.696;2023-02-15T17:56:45;12.83;;;8.63;;
12350;SDS011;6240;51.538;7.696;2023-02-15T17:59:12;14.80;;;9.07;;
12350;SDS011;6240;51.538;7.696;2023-02-15T18:01:41;14.03;;;8.10;;
12350;SDS011;6240;51.538;7.696;2023-02-15T18:04:27;15.40;;;9.40;;
12350;SDS011;6240;51.538;7.696;2023-02-15T18:07:13;15.63;;;9.83;;
12350;SDS011;6240;51.538;7.696;2023-02-15T18:09:59;18.43;;;9.90;;
12350;SDS011;6240;51.538;7.696;2023-02-15T18:12:44;17.23;;;10.50;;
12350;SDS011;6240;51.538;7.696;2023-02-15T18:15:11;13.67;;;8.87;;
12350;SDS011;6240;51.538;7.696;2023-02-15T18:17:39;14.57;;;8.63;;
12350;SDS011;6240;51.538;7.696;2023-02-15T18:20:14;10.17;;;7.73;;
12350;SDS011;6240;51.538;7.696;2023-02-15T18:22:43;16.37;;;9.23;;
12350;SDS011;6240;51.538;7.696;2023-02-15T18:25:11;13.77;;;8.40;;
12350;SDS011;6240;51.538;7.696;2023-02-15T18:27:38;14.70;;;9.33;;